sensor_id;sensor_type;location;lat;lon;timestamp;pressure;altitude;pressure_sealevel;temperature;humidity
13734;BME280;43298;52.560;13.508;2023-02-14T00:00:20;103175.59;;;5.68;100.00
13734;BME280;43298;52.560;13.508;2023-02-14T00:02:47;103175.56;;;5.66;100.00
13734;BME280;43298;52.560;13.508;2023-02-14T00:05:13;103171.28;;;5.65;100.00
13734;BME280;43298;52.560;13.508;2023-02-14T00:07:39;103169.53;;;5.64;100.00
13734;BME280;43298;52.560;13.508;2023-02-14T00:10:07;103174.66;;;5.64;100.00
13734;BME280;43298;52.560;13.508;2023-02-14T00:12:34;103172.03;;;5.60;100.00
13734;BME280;43298;52.560;13.508;2023-02-14T00:14:59;103168.59;;;5.59;100.00
13734;BME280;43298;52.560;13.508;2023-02-14T00:17:44;103169.44;;;5.58;100.00
13734;BME280;43298;52.560;13.508;2023-02-14T00:20:10;103173.69;;;5.58;100.00
13734;BME280;43298;52.560;13.508;2023-02-14T00:22:36;103167.75;;;5.60;100.00
13734;BME280;43298;52.560;13.508;2023-02-14T00:25:02;103178.75;;;5.55;100.00
13734;BME280;43298;52.560;13.508;2023-02-14T00:27:27;103174.47;;;5.54;100.00
13734;BME280;43298;52.560;13.508;2023-02-14T00:29:53;103173.56;;;5.50;100.00
13734;BME280;43298;52.560;13.508;2023-02-14T00:32:21;103167.63;;;5.53;100.00
13734;BME280;43298;52.560;13.508;2023-02-14T00:34:46;103159.03;;;5.51;100.00
13734;BME280;43298;52.560;13.508;2023-02-14T00:37:12;103165.88;;;5.50;100.00
13734;BME280;43298;52.560;13.508;2023-02-14T00:39:38;103161.53;;;5.48;100.00
13734;BME280;43298;52.560;13.508;2023-02-14T00:42:04;103169.19;;;5.46;100.00
13734;BME280;43298;52.560;13.508;2023-02-14T00:44:29;103161.50;;;5.45;100.00
13734;BME280;43298;52.560;13.508;2023-02-14T00:46:55;103164.06;;;5.45;100.00
13734;BME280;43298;52.560;13.508;2023-02-14T00:49:21;103153.78;;;5.43;100.00
13734;BME280;43298;52.560;13.508;2023-02-14T00:51:47;103156.38;;;5.45;100.00
13734;BME280;43298;52.560;13.508;2023-02-14T00:54:12;103155.47;;;5.43;100.00
13734;BME280;43298;52.560;13.508;2023-02-14T00:56:38;103158.88;;;5.42;100.00
13734;BME280;43298;52.560;13.508;2023-02-14T00:59:04;103158.81;;;5.39;100.00
13734;BME280;43298;52.560;13.508;2023-02-14T01:01:30;103151.97;;;5.38;100.00
13734;BME280;43298;52.560;13.508;2023-02-14T01:03:55;103154.53;;;5.38;100.00
13734;BME280;43298;52.560;13.508;2023-02-14T01:06:23;103156.19;;;5.36;100.00
13734;BME280;43298;52.560;13.508;2023-02-14T01:08:49;103153.63;;;5.36;100.00
13734;BME280;43298;52.560;13.508;2023-02-14T01:11:21;103154.47;;;5.35;100.00
13734;BME280;43298;52.560;13.508;2023-02-14T01:13:48;103149.44;;;5.41;100.00
13734;BME280;43298;52.560;13.508;2023-02-14T01:16:19;103146.00;;;5.39;100.00
13734;BME280;43298;52.560;13.508;2023-02-14T01:18:45;103139.06;;;5.35;100.00
13734;BME280;43298;52.560;13.508;2023-02-14T01:21:29;103142.59;;;5.41;100.00
13734;BME280;43298;52.560;13.508;2023-02-14T01:23:58;103143.50;;;5.43;100.00
13734;BME280;43298;52.560;13.508;2023-02-14T01:26:26;103141.81;;;5.45;100.00
13734;BME280;43298;52.560;13.508;2023-02-14T01:28:52;103140.97;;;5.45;100.00
13734;BME280;43298;52.560;13.508;2023-02-14T01:31:25;103144.28;;;5.41;100.00
13734;BME280;43298;52.560;13.508;2023-02-14T01:33:52;103140.00;;;5.40;100.00
13734;BME280;43298;52.560;13.508;2023-02-14T01:39:01;103132.28;;;5.38;100.00
13734;BME280;43298;52.560;13.508;2023-02-14T01:41:31;103135.72;;;5.39;100.00
13734;BME280;43298;52.560;13.508;2023-02-14T01:44:06;103134.00;;;5.38;100.00
13734;BME280;43298;52.560;13.508;2023-02-14T01:46:35;103130.53;;;5.36;100.00
13734;BME280;43298;52.560;13.508;2023-02-14T01:49:19;103128.88;;;5.38;100.00
13734;BME280;43298;52.560;13.508;2023-02-14T01:51:54;103121.94;;;5.34;100.00
13734;BME280;43298;52.560;13.508;2023-02-14T01:54:24;103126.09;;;5.27;100.00
13734;BME280;43298;52.560;13.508;2023-02-14T01:56:56;103115.91;;;5.30;100.00
13734;BME280;43298;52.560;13.508;2023-02-14T01:59:27;103119.34;;;5.31;100.00
13734;BME280;43298;52.560;13.508;2023-02-14T02:01:54;103116.78;;;5.32;100.00
13734;BME280;43298;52.560;13.508;2023-02-14T02:04:26;103116.00;;;5.35;100.00
13734;BME280;43298;52.560;13.508;2023-02-14T02:07:02;103124.56;;;5.37;100.00
13734;BME280;43298;52.560;13.508;2023-02-14T02:09:53;103122.81;;;5.34;100.00
13734;BME280;43298;52.560;13.508;2023-02-14T02:12:21;103133.81;;;5.29;100.00
13734;BME280;43298;52.560;13.508;2023-02-14T02:14:51;103126.84;;;5.22;100.00
13734;BME280;43298;52.560;13.508;2023-02-14T02:26:31;103122.56;;;5.21;100.00
13734;BME280;43298;52.560;13.508;2023-02-14T02:35:19;103130.13;;;5.15;100.00
13734;BME280;43298;52.560;13.508;2023-02-14T02:47:01;103124.88;;;5.09;100.00
13734;BME280;43298;52.560;13.508;2023-02-14T02:55:53;103126.78;;;5.19;100.00
13734;BME280;43298;52.560;13.508;2023-02-14T02:59:00;103128.63;;;5.26;100.00
13734;BME280;43298;52.560;13.508;2023-02-14T03:01:37;103119.22;;;5.25;100.00
13734;BME280;43298;52.560;13.508;2023-02-14T03:04:10;103117.50;;;5.24;100.00
13734;BME280;43298;52.560;13.508;2023-02-14T03:06:58;103116.59;;;5.22;100.00
13734;BME280;43298;52.560;13.508;2023-02-14T03:15:20;103124.34;;;5.25;100.00
13734;BME280;43298;52.560;13.508;2023-02-14T03:18:23;103129.53;;;5.28;100.00
13734;BME280;43298;52.560;13.508;2023-02-14T03:27:22;103120.06;;;5.24;100.00
13734;BME280;43298;52.560;13.508;2023-02-14T03:30:35;103126.88;;;5.23;100.00
13734;BME280;43298;52.560;13.508;2023-02-14T03:33:24;103114.81;;;5.18;100.00
13734;BME280;43298;52.560;13.508;2023-02-14T03:36:13;103118.22;;;5.17;100.00
13734;BME280;43298;52.560;13.508;2023-02-14T03:38:54;103122.41;;;5.13;100.00
13734;BME280;43298;52.560;13.508;2023-02-14T03:41:26;103123.22;;;5.11;100.00
13734;BME280;43298;52.560;13.508;2023-02-14T03:43:58;103115.50;;;5.09;100.00
13734;BME280;43298;52.560;13.508;2023-02-14T03:46:50;103122.28;;;5.07;100.00
13734;BME280;43298;52.560;13.508;2023-02-14T03:49:23;103123.09;;;5.05;100.00
13734;BME280;43298;52.560;13.508;2023-02-14T03:51:53;103115.44;;;5.06;100.00
13734;BME280;43298;52.560;13.508;2023-02-14T03:54:22;103114.59;;;5.07;100.00
13734;BME280;43298;52.560;13.508;2023-02-14T03:57:23;103114.59;;;5.07;100.00
13734;BME280;43298;52.560;13.508;2023-02-14T03:59:50;103113.75;;;5.07;100.00
13734;BME280;43298;52.560;13.508;2023-02-14T04:02:26;103109.41;;;5.03;100.00
13734;BME280;43298;52.560;13.508;2023-02-14T04:04:54;103110.19;;;4.99;100.00
13734;BME280;43298;52.560;13.508;2023-02-14T04:07:23;103116.19;;;5.01;100.00
13734;BME280;43298;52.560;13.508;2023-02-14T04:09:50;103122.13;;;4.98;100.00
13734;BME280;43298;52.560;13.508;2023-02-14T04:12:17;103115.25;;;4.96;100.00
13734;BME280;43298;52.560;13.508;2023-02-14T04:14:44;103116.91;;;4.94;100.00
13734;BME280;43298;52.560;13.508;2023-02-14T04:17:09;103110.91;;;4.92;100.00
13734;BME280;43298;52.560;13.508;2023-02-14T04:19:54;103104.97;;;4.94;100.00
13734;BME280;43298;52.560;13.508;2023-02-14T04:22:20;103105.00;;;4.96;100.00
13734;BME280;43298;52.560;13.508;2023-02-14T04:24:46;103104.13;;;4.95;100.00
13734;BME280;43298;52.560;13.508;2023-02-14T04:27:12;103094.69;;;4.93;100.00
13734;BME280;43298;52.560;13.508;2023-02-14T04:29:48;103103.19;;;4.90;100.00
13734;BME280;43298;52.560;13.508;2023-02-14T04:32:19;103103.16;;;4.89;100.00
13734;BME280;43298;52.560;13.508;2023-02-14T04:34:46;103103.97;;;4.88;100.00
13734;BME280;43298;52.560;13.508;2023-02-14T04:37:12;103100.50;;;4.84;100.00
13734;BME280;43298;52.560;13.508;2023-02-14T04:39:39;103102.25;;;4.87;100.00
13734;BME280;43298;52.560;13.508;2023-02-14T04:42:05;103103.09;;;4.86;100.00
13734;BME280;43298;52.560;13.508;2023-02-14T04:44:31;103104.81;;;4.87;100.00
13734;BME280;43298;52.560;13.508;2023-02-14T04:46:59;103096.31;;;4.89;100.00
13734;BME280;43298;52.560;13.508;2023-02-14T04:49:25;103093.72;;;4.88;100.00
13734;BME280;43298;52.560;13.508;2023-02-14T04:51:51;103092.78;;;4.83;100.00
13734;BME280;43298;52.560;13.508;2023-02-14T04:54:16;103082.53;;;4.84;100.00
13734;BME280;43298;52.560;13.508;2023-02-14T04:56:42;103086.00;;;4.85;100.00
13734;BME280;43298;52.560;13.508;2023-02-14T04:59:08;103085.16;;;4.86;100.00
13734;BME280;43298;52.560;13.508;2023-02-14T05:01:34;103082.66;;;4.89;100.00
13734;BME280;43298;52.560;13.508;2023-02-14T05:04:00;103086.91;;;4.88;100.00
13734;BME280;43298;52.560;13.508;2023-02-14T05:06:26;103076.56;;;4.85;100.00
13734;BME280;43298;52.560;13.508;2023-02-14T05:08:54;103079.09;;;4.84;100.00
13734;BME280;43298;52.560;13.508;2023-02-14T05:11:21;103079.88;;;4.80;100.00
13734;BME280;43298;52.560;13.508;2023-02-14T05:13:47;103080.69;;;4.77;100.00
13734;BME280;43298;52.560;13.508;2023-02-14T05:16:13;103079.03;;;4.79;100.00
13734;BME280;43298;52.560;13.508;2023-02-14T05:18:38;103080.72;;;4.79;100.00
13734;BME280;43298;52.560;13.508;2023-02-14T05:21:05;103079.78;;;4.75;100.00
13734;BME280;43298;52.560;13.508;2023-02-14T05:23:31;103069.53;;;4.74;100.00
13734;BME280;43298;52.560;13.508;2023-02-14T05:25:56;103069.53;;;4.74;100.00
13734;BME280;43298;52.560;13.508;2023-02-14T05:28:22;103078.91;;;4.73;100.00
13734;BME280;43298;52.560;13.508;2023-02-14T05:30:50;103084.91;;;4.74;100.00
13734;BME280;43298;52.560;13.508;2023-02-14T05:33:16;103075.53;;;4.76;100.00
13734;BME280;43298;52.560;13.508;2023-02-14T05:35:42;103072.97;;;4.76;100.00
13734;BME280;43298;52.560;13.508;2023-02-14T05:38:07;103064.44;;;4.77;100.00
13734;BME280;43298;52.560;13.508;2023-02-14T05:40:33;103069.75;;;4.86;100.00
13734;BME280;43298;52.560;13.508;2023-02-14T05:42:59;103064.78;;;4.93;100.00
13734;BME280;43298;52.560;13.508;2023-02-14T05:45:25;103068.19;;;4.94;100.00
13734;BME280;43298;52.560;13.508;2023-02-14T05:47:51;103067.31;;;4.92;100.00
13734;BME280;43298;52.560;13.508;2023-02-14T05:50:17;103062.19;;;4.92;100.00
13734;BME280;43298;52.560;13.508;2023-02-14T05:52:43;103074.19;;;4.93;100.00
13734;BME280;43298;52.560;13.508;2023-02-14T05:55:09;103071.56;;;4.91;100.00
13734;BME280;43298;52.560;13.508;2023-02-14T05:57:36;103067.25;;;4.89;100.00
13734;BME280;43298;52.560;13.508;2023-02-14T06:00:05;103071.47;;;4.87;100.00
13734;BME280;43298;52.560;13.508;2023-02-14T06:02:31;103066.25;;;4.82;100.00
13734;BME280;43298;52.560;13.508;2023-02-14T06:04:57;103072.19;;;4.80;100.00
13734;BME280;43298;52.560;13.508;2023-02-14T06:07:24;103068.78;;;4.79;100.00
13734;BME280;43298;52.560;13.508;2023-02-14T06:09:49;103068.78;;;4.79;100.00
13734;BME280;43298;52.560;13.508;2023-02-14T06:12:15;103073.88;;;4.78;100.00
13734;BME280;43298;52.560;13.508;2023-02-14T06:14:41;103072.09;;;4.74;100.00
13734;BME280;43298;52.560;13.508;2023-02-14T06:17:08;103068.75;;;4.78;100.00
13734;BME280;43298;52.560;13.508;2023-02-14T06:19:35;103067.94;;;4.80;100.00
13734;BME280;43298;52.560;13.508;2023-02-14T06:22:01;103068.81;;;4.82;100.00
13734;BME280;43298;52.560;13.508;2023-02-14T06:24:26;103075.69;;;4.83;100.00
13734;BME280;43298;52.560;13.508;2023-02-14T06:26:52;103068.81;;;4.82;100.00
13734;BME280;43298;52.560;13.508;2023-02-14T06:29:18;103076.59;;;4.87;100.00
13734;BME280;43298;52.560;13.508;2023-02-14T06:31:44;103080.06;;;4.87;100.00
13734;BME280;43298;52.560;13.508;2023-02-14T06:34:10;103077.56;;;4.90;100.00
13734;BME280;43298;52.560;13.508;2023-02-14T06:36:36;103075.94;;;4.95;100.00
13734;BME280;43298;52.560;13.508;2023-02-14T06:39:02;103076.81;;;4.96;100.00
13734;BME280;43298;52.560;13.508;2023-02-14T06:41:28;103078.59;;;5.00;100.00
13734;BME280;43298;52.560;13.508;2023-02-14T06:43:54;103075.19;;;5.02;100.00
13734;BME280;43298;52.560;13.508;2023-02-14T06:46:20;103088.97;;;5.06;100.00
13734;BME280;43298;52.560;13.508;2023-02-14T06:48:46;103071.06;;;5.10;100.00
13734;BME280;43298;52.560;13.508;2023-02-14T06:51:12;103071.94;;;5.11;100.00
13734;BME280;43298;52.560;13.508;2023-02-14T06:53:38;103078.78;;;5.12;100.00
13734;BME280;43298;52.560;13.508;2023-02-14T06:56:04;103078.78;;;5.12;100.00
13734;BME280;43298;52.560;13.508;2023-02-14T06:58:30;103077.13;;;5.14;100.00
13734;BME280;43298;52.560;13.508;2023-02-14T07:00:57;103082.31;;;5.17;100.00
13734;BME280;43298;52.560;13.508;2023-02-14T07:03:25;103087.44;;;5.17;100.00
13734;BME280;43298;52.560;13.508;2023-02-14T07:05:52;103081.50;;;5.19;100.00
13734;BME280;43298;52.560;13.508;2023-02-14T07:08:18;103084.91;;;5.20;100.00
13734;BME280;43298;52.560;13.508;2023-02-14T07:10:45;103080.63;;;5.19;100.00
13734;BME280;43298;52.560;13.508;2023-02-14T07:13:11;103080.59;;;5.17;100.00
13734;BME280;43298;52.560;13.508;2023-02-14T07:15:37;103080.63;;;5.19;100.00
13734;BME280;43298;52.560;13.508;2023-02-14T07:18:03;103084.06;;;5.19;100.00
13734;BME280;43298;52.560;13.508;2023-02-14T07:20:29;103079.81;;;5.21;100.00
13734;BME280;43298;52.560;13.508;2023-02-14T07:22:55;103072.06;;;5.17;100.00
13734;BME280;43298;52.560;13.508;2023-02-14T07:25:21;103072.16;;;5.23;100.00
13734;BME280;43298;52.560;13.508;2023-02-14T07:27:47;103078.09;;;5.20;100.00
13734;BME280;43298;52.560;13.508;2023-02-14T07:30:13;103085.81;;;5.22;100.00
13734;BME280;43298;52.560;13.508;2023-02-14T07:32:40;103088.41;;;5.23;100.00
13734;BME280;43298;52.560;13.508;2023-02-14T07:35:06;103084.19;;;5.25;100.00
13734;BME280;43298;52.560;13.508;2023-02-14T07:37:34;103094.41;;;5.24;100.00
13734;BME280;43298;52.560;13.508;2023-02-14T07:40:00;103086.00;;;5.31;100.00
13734;BME280;43298;52.560;13.508;2023-02-14T07:42:26;103085.19;;;5.33;100.00
13734;BME280;43298;52.560;13.508;2023-02-14T07:44:52;103079.19;;;5.34;100.00
13734;BME280;43298;52.560;13.508;2023-02-14T07:47:18;103080.94;;;5.37;100.00
13734;BME280;43298;52.560;13.508;2023-02-14T07:49:44;103083.56;;;5.40;100.00
13734;BME280;43298;52.560;13.508;2023-02-14T07:52:10;103074.22;;;5.42;100.00
13734;BME280;43298;52.560;13.508;2023-02-14T07:54:35;103082.03;;;5.49;100.00
13734;BME280;43298;52.560;13.508;2023-02-14T07:57:04;103077.81;;;5.53;100.00
13734;BME280;43298;52.560;13.508;2023-02-14T07:59:30;103078.66;;;5.53;100.00
13734;BME280;43298;52.560;13.508;2023-02-14T08:01:55;103076.13;;;5.55;100.00
13734;BME280;43298;52.560;13.508;2023-02-14T08:04:21;103074.47;;;5.57;100.00
13734;BME280;43298;52.560;13.508;2023-02-14T08:06:51;103084.06;;;5.68;100.00
13734;BME280;43298;52.560;13.508;2023-02-14T08:09:17;103085.00;;;5.75;100.00
13734;BME280;43298;52.560;13.508;2023-02-14T08:11:58;103086.75;;;5.77;100.00
13734;BME280;43298;52.560;13.508;2023-02-14T08:14:43;103090.19;;;5.78;100.00
13734;BME280;43298;52.560;13.508;2023-02-14T08:17:10;103097.00;;;5.76;100.00
13734;BME280;43298;52.560;13.508;2023-02-14T08:19:38;103097.13;;;5.82;100.00
13734;BME280;43298;52.560;13.508;2023-02-14T08:22:05;103101.50;;;5.87;100.00
13734;BME280;43298;52.560;13.508;2023-02-14T08:24:31;103100.56;;;5.84;100.00
13734;BME280;43298;52.560;13.508;2023-02-14T08:26:57;103104.88;;;5.83;100.00
13734;BME280;43298;52.560;13.508;2023-02-14T08:29:23;103112.69;;;5.92;100.00
13734;BME280;43298;52.560;13.508;2023-02-14T08:31:49;103113.53;;;5.91;100.00
13734;BME280;43298;52.560;13.508;2023-02-14T08:34:16;103116.19;;;5.96;100.00
13734;BME280;43298;52.560;13.508;2023-02-14T08:36:42;103117.19;;;6.05;100.00
13734;BME280;43298;52.560;13.508;2023-02-14T08:39:08;103120.69;;;6.12;100.00
13734;BME280;43298;52.560;13.508;2023-02-14T08:41:34;103116.47;;;6.14;100.00
13734;BME280;43298;52.560;13.508;2023-02-14T08:44:01;103121.66;;;6.17;100.00
13734;BME280;43298;52.560;13.508;2023-02-14T08:46:27;103125.03;;;6.16;100.00
13734;BME280;43298;52.560;13.508;2023-02-14T08:48:53;103128.41;;;6.12;100.00
13734;BME280;43298;52.560;13.508;2023-02-14T08:51:21;103137.00;;;6.14;100.00
13734;BME280;43298;52.560;13.508;2023-02-14T08:53:49;103131.94;;;6.17;100.00
13734;BME280;43298;52.560;13.508;2023-02-14T08:56:16;103130.16;;;6.16;100.00
13734;BME280;43298;52.560;13.508;2023-02-14T08:58:43;103136.25;;;6.21;100.00
13734;BME280;43298;52.560;13.508;2023-02-14T09:01:12;103131.97;;;6.20;100.00
13734;BME280;43298;52.560;13.508;2023-02-14T09:03:38;103128.63;;;6.26;100.00
13734;BME280;43298;52.560;13.508;2023-02-14T09:06:10;103121.88;;;6.34;100.00
13734;BME280;43298;52.560;13.508;2023-02-14T09:08:38;103128.84;;;6.42;100.00
13734;BME280;43298;52.560;13.508;2023-02-14T09:11:22;103125.34;;;6.37;100.00
13734;BME280;43298;52.560;13.508;2023-02-14T09:13:50;103129.63;;;6.35;100.00
13734;BME280;43298;52.560;13.508;2023-02-14T09:16:18;103134.72;;;6.34;100.00
13734;BME280;43298;52.560;13.508;2023-02-14T09:18:46;103139.91;;;6.37;100.00
13734;BME280;43298;52.560;13.508;2023-02-14T09:21:15;103139.88;;;6.34;100.00
13734;BME280;43298;52.560;13.508;2023-02-14T09:23:42;103145.88;;;6.34;100.00
13734;BME280;43298;52.560;13.508;2023-02-14T09:26:11;103134.00;;;6.42;100.00
13734;BME280;43298;52.560;13.508;2023-02-14T09:28:38;103135.69;;;6.42;100.00
13734;BME280;43298;52.560;13.508;2023-02-14T09:31:13;103140.03;;;6.46;100.00
13734;BME280;43298;52.560;13.508;2023-02-14T09:33:40;103128.94;;;6.47;100.00
13734;BME280;43298;52.560;13.508;2023-02-14T09:36:06;103133.25;;;6.51;100.00
13734;BME280;43298;52.560;13.508;2023-02-14T09:38:45;103134.28;;;6.63;100.00
13734;BME280;43298;52.560;13.508;2023-02-14T09:44:09;103137.75;;;6.67;100.00
13734;BME280;43298;52.560;13.508;2023-02-14T09:46:47;103125.84;;;6.76;100.00
13734;BME280;43298;52.560;13.508;2023-02-14T09:49:17;103130.19;;;6.79;100.00
13734;BME280;43298;52.560;13.508;2023-02-14T09:51:50;103135.25;;;6.71;100.00
13734;BME280;43298;52.560;13.508;2023-02-14T09:54:26;103138.63;;;6.67;100.00
13734;BME280;43298;52.560;13.508;2023-02-14T09:57:12;103146.34;;;6.69;100.00
13734;BME280;43298;52.560;13.508;2023-02-14T09:59:59;103137.75;;;6.67;100.00
13734;BME280;43298;52.560;13.508;2023-02-14T10:03:02;103147.09;;;6.60;100.00
13734;BME280;43298;52.560;13.508;2023-02-14T10:06:16;103138.72;;;6.73;100.00
13734;BME280;43298;52.560;13.508;2023-02-14T10:11:46;103135.31;;;6.76;100.00
13734;BME280;43298;52.560;13.508;2023-02-14T10:14:18;103136.16;;;6.76;100.00
13734;BME280;43298;52.560;13.508;2023-02-14T10:19:33;103135.53;;;6.94;100.00
13734;BME280;43298;52.560;13.508;2023-02-14T10:22:08;103131.16;;;6.87;100.00
13734;BME280;43298;52.560;13.508;2023-02-14T10:27:45;103125.88;;;6.78;100.00
13734;BME280;43298;52.560;13.508;2023-02-14T10:30:21;103122.47;;;6.80;100.00
13734;BME280;43298;52.560;13.508;2023-02-14T10:33:05;103127.63;;;6.82;100.00
13734;BME280;43298;52.560;13.508;2023-02-14T10:35:55;103126.00;;;6.85;100.00
13734;BME280;43298;52.560;13.508;2023-02-14T10:38:45;103114.81;;;6.85;100.00
13734;BME280;43298;52.560;13.508;2023-02-14T10:45:04;103113.00;;;6.76;100.00
13734;BME280;43298;52.560;13.508;2023-02-14T10:50:32;103110.38;;;6.70;100.00
13734;BME280;43298;52.560;13.508;2023-02-14T10:53:20;103119.84;;;6.74;100.00
13734;BME280;43298;52.560;13.508;2023-02-14T10:56:05;103113.75;;;6.68;100.00
13734;BME280;43298;52.560;13.508;2023-02-14T10:58:35;103115.63;;;6.79;100.00
13734;BME280;43298;52.560;13.508;2023-02-14T11:01:09;103114.16;;;6.99;100.00
13734;BME280;43298;52.560;13.508;2023-02-14T11:03:40;103112.59;;;7.13;100.00
13734;BME280;43298;52.560;13.508;2023-02-14T11:06:08;103105.66;;;7.08;100.00
13734;BME280;43298;52.560;13.508;2023-02-14T11:08:37;103103.13;;;7.11;100.00
13734;BME280;43298;52.560;13.508;2023-02-14T11:11:18;103108.19;;;7.03;100.00
13734;BME280;43298;52.560;13.508;2023-02-14T11:13:46;103098.06;;;7.20;100.00
13734;BME280;43298;52.560;13.508;2023-02-14T11:21:48;103107.56;;;7.25;100.00
13734;BME280;43298;52.560;13.508;2023-02-14T11:24:31;103098.84;;;7.13;100.00
13734;BME280;43298;52.560;13.508;2023-02-14T11:27:03;103095.38;;;7.06;100.00
13734;BME280;43298;52.560;13.508;2023-02-14T11:32:08;103094.84;;;7.43;100.00
13734;BME280;43298;52.560;13.508;2023-02-14T11:35:04;103090.50;;;7.36;100.00
13734;BME280;43298;52.560;13.508;2023-02-14T11:37:38;103090.50;;;7.36;100.00
13734;BME280;43298;52.560;13.508;2023-02-14T11:40:22;103081.84;;;7.27;100.00
13734;BME280;43298;52.560;13.508;2023-02-14T11:42:50;103087.84;;;7.26;100.00
13734;BME280;43298;52.560;13.508;2023-02-14T11:45:35;103094.03;;;7.47;100.00
13734;BME280;43298;52.560;13.508;2023-02-14T11:48:27;103080.34;;;7.51;100.00
13734;BME280;43298;52.560;13.508;2023-02-14T11:51:05;103088.91;;;7.50;100.00
13734;BME280;43298;52.560;13.508;2023-02-14T11:53:53;103092.22;;;7.36;100.00
13734;BME280;43298;52.560;13.508;2023-02-14T11:56:22;103080.16;;;7.33;100.00
13734;BME280;43298;52.560;13.508;2023-02-14T11:59:02;103078.56;;;7.44;100.00
13734;BME280;43298;52.560;13.508;2023-02-14T12:01:31;103077.69;;;7.41;100.00
13734;BME280;43298;52.560;13.508;2023-02-14T12:04:06;103075.19;;;7.50;100.00
13734;BME280;43298;52.560;13.508;2023-02-14T12:06:39;103071.66;;;7.40;100.00
13734;BME280;43298;52.560;13.508;2023-02-14T12:14:29;103064.03;;;7.51;100.00
13734;BME280;43298;52.560;13.508;2023-02-14T12:22:56;103052.91;;;7.55;100.00
13734;BME280;43298;52.560;13.508;2023-02-14T12:25:36;103046.06;;;7.57;100.00
13734;BME280;43298;52.560;13.508;2023-02-14T12:28:11;103045.22;;;7.58;100.00
13734;BME280;43298;52.560;13.508;2023-02-14T12:30:38;103034.00;;;7.48;100.00
13734;BME280;43298;52.560;13.508;2023-02-14T12:33:19;103036.53;;;7.45;100.00
13734;BME280;43298;52.560;13.508;2023-02-14T12:38:52;103022.75;;;7.36;100.00
13734;BME280;43298;52.560;13.508;2023-02-14T12:41:48;103017.72;;;7.51;100.00
13734;BME280;43298;52.560;13.508;2023-02-14T12:44:42;103018.53;;;7.47;100.00
13734;BME280;43298;52.560;13.508;2023-02-14T12:47:45;103016.09;;;7.65;100.00
13734;BME280;43298;52.560;13.508;2023-02-14T12:59:22;102999.72;;;7.52;100.00
13734;BME280;43298;52.560;13.508;2023-02-14T13:11:57;102988.72;;;7.85;100.00
13734;BME280;43298;52.560;13.508;2023-02-14T13:14:42;102994.69;;;7.76;100.00
13734;BME280;43298;52.560;13.508;2023-02-14T13:17:23;102990.41;;;7.75;100.00
13734;BME280;43298;52.560;13.508;2023-02-14T13:22:37;102982.53;;;7.48;100.00
13734;BME280;43298;52.560;13.508;2023-02-14T13:27:48;102983.41;;;7.53;100.00
13734;BME280;43298;52.560;13.508;2023-02-14T13:30:35;102980.13;;;7.80;100.00
13734;BME280;43298;52.560;13.508;2023-02-14T13:33:41;102974.97;;;7.78;100.00
13734;BME280;43298;52.560;13.508;2023-02-14T13:36:11;102975.72;;;7.58;100.00
13734;BME280;43298;52.560;13.508;2023-02-14T13:38:49;102972.13;;;7.38;100.00
13734;BME280;43298;52.560;13.508;2023-02-14T13:41:16;102976.44;;;7.37;100.00
13734;BME280;43298;52.560;13.508;2023-02-14T13:43:59;102974.72;;;7.41;100.00
13734;BME280;43298;52.560;13.508;2023-02-14T13:49:27;102971.38;;;7.51;100.00
13734;BME280;43298;52.560;13.508;2023-02-14T13:51:57;102968.81;;;7.58;100.00
13734;BME280;43298;52.560;13.508;2023-02-14T13:54:47;102972.13;;;7.39;100.00
13734;BME280;43298;52.560;13.508;2023-02-14T13:57:32;102962.75;;;7.47;100.00
13734;BME280;43298;52.560;13.508;2023-02-14T14:02:45;102962.09;;;7.78;100.00
13734;BME280;43298;52.560;13.508;2023-02-14T14:08:49;102964.59;;;7.65;100.00
13734;BME280;43298;52.560;13.508;2023-02-14T14:19:08;102960.94;;;7.31;100.00
13734;BME280;43298;52.560;13.508;2023-02-14T14:21:40;102967.81;;;7.34;100.00
13734;BME280;43298;52.560;13.508;2023-02-14T14:24:26;102956.63;;;7.32;100.00
13734;BME280;43298;52.560;13.508;2023-02-14T14:27:01;102952.31;;;7.26;100.00
13734;BME280;43298;52.560;13.508;2023-02-14T14:29:53;102948.91;;;7.32;100.00
13734;BME280;43298;52.560;13.508;2023-02-14T14:32:33;102943.72;;;7.23;100.00
13734;BME280;43298;52.560;13.508;2023-02-14T14:37:55;102947.19;;;7.31;100.00
13734;BME280;43298;52.560;13.508;2023-02-14T14:40:30;102947.09;;;7.16;100.00
13734;BME280;43298;52.560;13.508;2023-02-14T14:43:16;102945.28;;;7.06;100.00
13734;BME280;43298;52.560;13.508;2023-02-14T14:45:46;102943.56;;;7.03;100.00
13734;BME280;43298;52.560;13.508;2023-02-14T14:50:58;102933.28;;;7.03;100.00
13734;BME280;43298;52.560;13.508;2023-02-14T14:53:31;102937.53;;;7.01;100.00
13734;BME280;43298;52.560;13.508;2023-02-14T14:56:00;102928.13;;;7.03;100.00
13734;BME280;43298;52.560;13.508;2023-02-14T14:58:47;102927.25;;;6.98;100.00
13734;BME280;43298;52.560;13.508;2023-02-14T15:01:36;102932.31;;;6.89;100.00
13734;BME280;43298;52.560;13.508;2023-02-14T15:04:33;102921.13;;;6.87;100.00
13734;BME280;43298;52.560;13.508;2023-02-14T15:07:26;102919.38;;;6.83;100.00
13734;BME280;43298;52.560;13.508;2023-02-14T15:09:52;102921.94;;;6.83;100.00
13734;BME280;43298;52.560;13.508;2023-02-14T15:12:22;102923.59;;;6.75;100.00
13734;BME280;43298;52.560;13.508;2023-02-14T15:15:11;102907.34;;;6.79;100.00
13734;BME280;43298;52.560;13.508;2023-02-14T15:17:38;102905.59;;;6.75;100.00